Airports Croatia Pula Airport

Pula Airport (LDPL / PUY)

Facts about Pula Airport

Name Pula Airport
City Pula
Country Croatia
ICAO code LDPL
IATA code PUY
Elevation 83.5152 meters (274 feet)

Weather

METAR

Metar data retrieved Saturday, 20 July 2024 at 00:55 UTC (20 minutes ago)

LDPL 200030Z AUTO 03004KT CAVOK 27/19 Q1009

Live traffic

Navigraph Charts (account required)